sensor_id;sensor_type;location;lat;lon;timestamp;pressure;altitude;pressure_sealevel;temperature;humidity
37904;BME280;23738;50.422;18.758;2024-03-17T00:02:03;98748.98;;;7.07;94.57
37904;BME280;23738;50.422;18.758;2024-03-17T00:04:33;98751.27;;;7.07;94.55
37904;BME280;23738;50.422;18.758;2024-03-17T00:07:03;98749.09;;;7.03;94.41
37904;BME280;23738;50.422;18.758;2024-03-17T00:09:33;98756.25;;;7.02;95.47
37904;BME280;23738;50.422;18.758;2024-03-17T00:12:02;98761.66;;;6.98;94.73
37904;BME280;23738;50.422;18.758;2024-03-17T00:14:31;98761.94;;;6.93;95.22
37904;BME280;23738;50.422;18.758;2024-03-17T00:17:02;98765.48;;;6.86;94.99
37904;BME280;23738;50.422;18.758;2024-03-17T00:19:32;98765.60;;;6.81;95.15
37904;BME280;23738;50.422;18.758;2024-03-17T00:22:01;98768.96;;;6.76;95.90
37904;BME280;23738;50.422;18.758;2024-03-17T00:24:31;98767.71;;;6.73;94.66
37904;BME280;23738;50.422;18.758;2024-03-17T00:27:03;98775.08;;;6.71;95.57
37904;BME280;23738;50.422;18.758;2024-03-17T00:29:32;98781.30;;;6.69;94.87
37904;BME280;23738;50.422;18.758;2024-03-17T00:32:01;98783.60;;;6.64;93.93
37904;BME280;23738;50.422;18.758;2024-03-17T00:34:30;98780.36;;;6.61;93.67
37904;BME280;23738;50.422;18.758;2024-03-17T00:37:00;98783.95;;;6.59;93.70
37904;BME280;23738;50.422;18.758;2024-03-17T00:39:29;98787.63;;;6.53;93.50
37904;BME280;23738;50.422;18.758;2024-03-17T00:41:58;98790.04;;;6.47;94.06
37904;BME280;23738;50.422;18.758;2024-03-17T00:44:27;98793.46;;;6.43;93.75
37904;BME280;23738;50.422;18.758;2024-03-17T00:46:56;98792.40;;;6.43;93.33
37904;BME280;23738;50.422;18.758;2024-03-17T00:49:25;98791.00;;;6.44;93.70
37904;BME280;23738;50.422;18.758;2024-03-17T00:51:55;98788.09;;;6.48;93.76
37904;BME280;23738;50.422;18.758;2024-03-17T00:54:25;98793.57;;;6.49;93.74
37904;BME280;23738;50.422;18.758;2024-03-17T00:56:54;98798.95;;;6.48;93.56
37904;BME280;23738;50.422;18.758;2024-03-17T00:59:24;98795.98;;;6.45;93.41
37904;BME280;23738;50.422;18.758;2024-03-17T01:01:54;98794.46;;;6.41;93.12
37904;BME280;23738;50.422;18.758;2024-03-17T01:04:23;98793.33;;;6.42;93.28
37904;BME280;23738;50.422;18.758;2024-03-17T01:06:52;98797.21;;;6.46;93.30
37904;BME280;23738;50.422;18.758;2024-03-17T01:09:22;98803.34;;;6.48;93.40
37904;BME280;23738;50.422;18.758;2024-03-17T01:11:51;98801.33;;;6.42;93.81
37904;BME280;23738;50.422;18.758;2024-03-17T01:14:20;98803.77;;;6.35;94.13
37904;BME280;23738;50.422;18.758;2024-03-17T01:16:51;98811.90;;;6.31;94.33
37904;BME280;23738;50.422;18.758;2024-03-17T01:19:21;98810.98;;;6.26;94.44
37904;BME280;23738;50.422;18.758;2024-03-17T01:21:50;98814.22;;;6.24;94.40
37904;BME280;23738;50.422;18.758;2024-03-17T01:24:19;98810.04;;;6.19;94.82
37904;BME280;23738;50.422;18.758;2024-03-17T01:26:49;98817.39;;;6.13;94.43
37904;BME280;23738;50.422;18.758;2024-03-17T01:29:18;98815.77;;;6.11;94.20
37904;BME280;23738;50.422;18.758;2024-03-17T01:31:48;98816.59;;;6.08;94.02
37904;BME280;23738;50.422;18.758;2024-03-17T01:34:19;98818.66;;;6.05;94.04
37904;BME280;23738;50.422;18.758;2024-03-17T01:36:49;98817.18;;;5.99;93.87
37904;BME280;23738;50.422;18.758;2024-03-17T01:39:19;98815.12;;;5.94;93.68
37904;BME280;23738;50.422;18.758;2024-03-17T01:41:49;98824.23;;;5.93;93.43
37904;BME280;23738;50.422;18.758;2024-03-17T01:44:26;98823.66;;;5.91;93.17
37904;BME280;23738;50.422;18.758;2024-03-17T01:46:57;98820.55;;;5.88;93.22
37904;BME280;23738;50.422;18.758;2024-03-17T01:49:27;98821.90;;;5.88;93.19
37904;BME280;23738;50.422;18.758;2024-03-17T01:51:57;98820.50;;;5.90;93.23
37904;BME280;23738;50.422;18.758;2024-03-17T01:54:27;98822.83;;;5.89;93.17
37904;BME280;23738;50.422;18.758;2024-03-17T01:56:56;98822.28;;;5.91;92.95
37904;BME280;23738;50.422;18.758;2024-03-17T01:59:26;98819.04;;;5.92;93.14
37904;BME280;23738;50.422;18.758;2024-03-17T02:01:55;98820.23;;;5.89;93.25
37904;BME280;23738;50.422;18.758;2024-03-17T02:04:25;98819.90;;;5.85;93.09
37904;BME280;23738;50.422;18.758;2024-03-17T02:06:55;98819.17;;;5.77;92.78
37904;BME280;23738;50.422;18.758;2024-03-17T02:09:25;98823.77;;;5.70;92.26
37904;BME280;23738;50.422;18.758;2024-03-17T02:11:55;98827.41;;;5.66;92.52
37904;BME280;23738;50.422;18.758;2024-03-17T02:14:24;98827.48;;;5.60;92.48
37904;BME280;23738;50.422;18.758;2024-03-17T02:16:54;98828.19;;;5.53;92.35
37904;BME280;23738;50.422;18.758;2024-03-17T02:19:23;98829.30;;;5.51;92.67
37904;BME280;23738;50.422;18.758;2024-03-17T02:21:52;98836.90;;;5.49;92.63
37904;BME280;23738;50.422;18.758;2024-03-17T02:24:21;98834.07;;;5.46;92.22
37904;BME280;23738;50.422;18.758;2024-03-17T02:26:50;98836.88;;;5.41;92.35
37904;BME280;23738;50.422;18.758;2024-03-17T02:29:19;98837.73;;;5.33;91.94
37904;BME280;23738;50.422;18.758;2024-03-17T02:31:49;98837.22;;;5.28;92.00
37904;BME280;23738;50.422;18.758;2024-03-17T02:34:18;98843.88;;;5.20;91.96
37904;BME280;23738;50.422;18.758;2024-03-17T02:36:48;98839.98;;;5.12;91.81
37904;BME280;23738;50.422;18.758;2024-03-17T02:39:17;98845.04;;;5.09;91.74
37904;BME280;23738;50.422;18.758;2024-03-17T02:42:04;98844.87;;;5.04;91.64
37904;BME280;23738;50.422;18.758;2024-03-17T02:44:35;98848.23;;;5.00;91.74
37904;BME280;23738;50.422;18.758;2024-03-17T02:47:06;98851.02;;;4.93;91.46
37904;BME280;23738;50.422;18.758;2024-03-17T02:49:38;98848.98;;;4.89;91.47
37904;BME280;23738;50.422;18.758;2024-03-17T02:52:08;98852.27;;;4.86;91.46
37904;BME280;23738;50.422;18.758;2024-03-17T02:54:38;98852.53;;;4.83;91.17
37904;BME280;23738;50.422;18.758;2024-03-17T02:57:07;98851.45;;;4.77;91.22
37904;BME280;23738;50.422;18.758;2024-03-17T02:59:37;98858.09;;;4.72;91.04
37904;BME280;23738;50.422;18.758;2024-03-17T03:02:06;98859.09;;;4.65;91.04
37904;BME280;23738;50.422;18.758;2024-03-17T03:04:35;98866.30;;;4.61;90.85
37904;BME280;23738;50.422;18.758;2024-03-17T03:07:05;98862.79;;;4.56;90.90
37904;BME280;23738;50.422;18.758;2024-03-17T03:09:34;98865.27;;;4.49;90.72
37904;BME280;23738;50.422;18.758;2024-03-17T03:12:05;98869.91;;;4.41;90.58
37904;BME280;23738;50.422;18.758;2024-03-17T03:14:35;98870.86;;;4.37;90.54
37904;BME280;23738;50.422;18.758;2024-03-17T03:17:05;98872.65;;;4.33;90.63
37904;BME280;23738;50.422;18.758;2024-03-17T03:19:34;98877.28;;;4.30;90.56
37904;BME280;23738;50.422;18.758;2024-03-17T03:22:04;98877.09;;;4.23;90.27
37904;BME280;23738;50.422;18.758;2024-03-17T03:24:34;98879.78;;;4.17;90.32
37904;BME280;23738;50.422;18.758;2024-03-17T03:27:03;98879.46;;;4.13;90.31
37904;BME280;23738;50.422;18.758;2024-03-17T03:29:33;98880.68;;;4.11;90.21
37904;BME280;23738;50.422;18.758;2024-03-17T03:32:02;98890.80;;;4.10;90.13
37904;BME280;23738;50.422;18.758;2024-03-17T03:34:31;98898.77;;;4.07;90.12
37904;BME280;23738;50.422;18.758;2024-03-17T03:37:01;98897.99;;;4.00;89.76
37904;BME280;23738;50.422;18.758;2024-03-17T03:39:31;98903.55;;;3.97;90.12
37904;BME280;23738;50.422;18.758;2024-03-17T03:42:01;98902.73;;;3.95;89.87
37904;BME280;23738;50.422;18.758;2024-03-17T03:44:30;98905.00;;;3.93;89.86
37904;BME280;23738;50.422;18.758;2024-03-17T03:46:59;98906.14;;;3.90;89.42
37904;BME280;23738;50.422;18.758;2024-03-17T03:49:29;98908.16;;;3.87;89.41
37904;BME280;23738;50.422;18.758;2024-03-17T03:51:58;98908.39;;;3.84;89.62
37904;BME280;23738;50.422;18.758;2024-03-17T03:54:27;98908.61;;;3.84;89.44
37904;BME280;23738;50.422;18.758;2024-03-17T03:56:57;98911.73;;;3.84;89.49
37904;BME280;23738;50.422;18.758;2024-03-17T03:59:26;98917.76;;;3.83;88.99
37904;BME280;23738;50.422;18.758;2024-03-17T04:01:56;98919.70;;;3.79;89.10
37904;BME280;23738;50.422;18.758;2024-03-17T04:04:26;98926.13;;;3.76;89.05
37904;BME280;23738;50.422;18.758;2024-03-17T04:06:56;98933.01;;;3.73;89.19
37904;BME280;23738;50.422;18.758;2024-03-17T04:09:26;98933.04;;;3.71;89.17
37904;BME280;23738;50.422;18.758;2024-03-17T04:11:55;98933.44;;;3.69;89.05
37904;BME280;23738;50.422;18.758;2024-03-17T04:14:25;98935.31;;;3.67;88.91
37904;BME280;23738;50.422;18.758;2024-03-17T04:16:54;98939.13;;;3.66;88.96
37904;BME280;23738;50.422;18.758;2024-03-17T04:19:24;98939.50;;;3.62;88.81
37904;BME280;23738;50.422;18.758;2024-03-17T04:21:55;98939.11;;;3.60;88.87
37904;BME280;23738;50.422;18.758;2024-03-17T04:24:25;98942.87;;;3.60;89.13
37904;BME280;23738;50.422;18.758;2024-03-17T04:26:55;98944.61;;;3.59;89.07
37904;BME280;23738;50.422;18.758;2024-03-17T04:29:25;98946.26;;;3.62;89.00
37904;BME280;23738;50.422;18.758;2024-03-17T04:31:54;98945.98;;;3.65;88.89
37904;BME280;23738;50.422;18.758;2024-03-17T04:34:24;98946.48;;;3.66;89.07
37904;BME280;23738;50.422;18.758;2024-03-17T04:36:53;98942.30;;;3.64;88.96
37904;BME280;23738;50.422;18.758;2024-03-17T04:39:23;98946.20;;;3.63;88.87
37904;BME280;23738;50.422;18.758;2024-03-17T04:41:53;98948.10;;;3.58;88.83
37904;BME280;23738;50.422;18.758;2024-03-17T04:44:22;98948.83;;;3.54;88.69
37904;BME280;23738;50.422;18.758;2024-03-17T04:46:52;98952.44;;;3.49;88.79
37904;BME280;23738;50.422;18.758;2024-03-17T04:49:23;98950.21;;;3.48;88.90
37904;BME280;23738;50.422;18.758;2024-03-17T04:51:52;98950.52;;;3.50;88.95
37904;BME280;23738;50.422;18.758;2024-03-17T04:54:21;98950.95;;;3.50;88.60
37904;BME280;23738;50.422;18.758;2024-03-17T04:56:50;98957.14;;;3.47;88.79
37904;BME280;23738;50.422;18.758;2024-03-17T04:59:19;98958.19;;;3.45;88.92
37904;BME280;23738;50.422;18.758;2024-03-17T05:01:49;98962.35;;;3.43;89.09
37904;BME280;23738;50.422;18.758;2024-03-17T05:04:18;98965.71;;;3.43;88.82
37904;BME280;23738;50.422;18.758;2024-03-17T05:06:49;98965.75;;;3.41;88.86
37904;BME280;23738;50.422;18.758;2024-03-17T05:09:19;98967.97;;;3.39;88.92
37904;BME280;23738;50.422;18.758;2024-03-17T05:11:49;98969.77;;;3.38;88.70
37904;BME280;23738;50.422;18.758;2024-03-17T05:14:19;98972.56;;;3.38;88.64
37904;BME280;23738;50.422;18.758;2024-03-17T05:16:50;98971.83;;;3.37;88.67
37904;BME280;23738;50.422;18.758;2024-03-17T05:19:20;98972.09;;;3.34;88.68
37904;BME280;23738;50.422;18.758;2024-03-17T05:21:50;98974.49;;;3.29;88.60
37904;BME280;23738;50.422;18.758;2024-03-17T05:24:19;98974.92;;;3.24;88.69
37904;BME280;23738;50.422;18.758;2024-03-17T05:26:48;98974.10;;;3.22;88.82
37904;BME280;23738;50.422;18.758;2024-03-17T05:29:18;98981.88;;;3.21;88.83
37904;BME280;23738;50.422;18.758;2024-03-17T05:31:47;98985.21;;;3.24;88.85
37904;BME280;23738;50.422;18.758;2024-03-17T05:34:16;98990.41;;;3.32;89.06
37904;BME280;23738;50.422;18.758;2024-03-17T05:36:46;98993.10;;;3.38;89.00
37904;BME280;23738;50.422;18.758;2024-03-17T05:39:15;98992.13;;;3.43;89.07
37904;BME280;23738;50.422;18.758;2024-03-17T05:41:45;98994.77;;;3.48;89.16
37904;BME280;23738;50.422;18.758;2024-03-17T05:44:17;98996.14;;;3.51;89.07
37904;BME280;23738;50.422;18.758;2024-03-17T05:46:46;98997.30;;;3.53;89.09
37904;BME280;23738;50.422;18.758;2024-03-17T05:49:16;98998.14;;;3.61;89.07
37904;BME280;23738;50.422;18.758;2024-03-17T05:51:46;98997.98;;;3.70;89.15
37904;BME280;23738;50.422;18.758;2024-03-17T05:54:15;98998.69;;;3.77;89.11
37904;BME280;23738;50.422;18.758;2024-03-17T05:56:45;98997.80;;;3.73;88.87
37904;BME280;23738;50.422;18.758;2024-03-17T05:59:14;98997.17;;;3.67;89.00
37904;BME280;23738;50.422;18.758;2024-03-17T06:01:43;98996.48;;;3.64;88.86
37904;BME280;23738;50.422;18.758;2024-03-17T06:04:13;98996.72;;;3.63;88.91
37904;BME280;23738;50.422;18.758;2024-03-17T06:06:42;98998.98;;;3.74;89.16
37904;BME280;23738;50.422;18.758;2024-03-17T06:09:12;98997.31;;;3.86;89.02
37904;BME280;23738;50.422;18.758;2024-03-17T06:11:47;98995.21;;;3.86;88.79
37904;BME280;23738;50.422;18.758;2024-03-17T06:14:16;99000.02;;;3.83;88.84
37904;BME280;23738;50.422;18.758;2024-03-17T06:16:47;99002.27;;;3.81;88.90
37904;BME280;23738;50.422;18.758;2024-03-17T06:19:16;98991.41;;;3.86;88.99
37904;BME280;23738;50.422;18.758;2024-03-17T06:21:45;99003.29;;;3.98;89.15
37904;BME280;23738;50.422;18.758;2024-03-17T06:24:15;99003.25;;;4.09;89.04
37904;BME280;23738;50.422;18.758;2024-03-17T06:26:44;99004.09;;;4.13;88.89
37904;BME280;23738;50.422;18.758;2024-03-17T06:29:15;99003.38;;;4.12;88.56
37904;BME280;23738;50.422;18.758;2024-03-17T06:31:46;99004.54;;;4.10;88.47
37904;BME280;23738;50.422;18.758;2024-03-17T06:34:17;99006.58;;;4.11;88.53
37904;BME280;23738;50.422;18.758;2024-03-17T06:36:48;99009.11;;;4.12;88.46
37904;BME280;23738;50.422;18.758;2024-03-17T06:39:18;99010.81;;;4.09;88.13
37904;BME280;23738;50.422;18.758;2024-03-17T06:41:49;99014.35;;;4.03;88.29
37904;BME280;23738;50.422;18.758;2024-03-17T06:44:18;99012.42;;;4.05;88.55
37904;BME280;23738;50.422;18.758;2024-03-17T06:46:52;99016.19;;;4.14;88.89
37904;BME280;23738;50.422;18.758;2024-03-17T06:49:21;99015.16;;;4.23;88.66
37904;BME280;23738;50.422;18.758;2024-03-17T06:51:51;99014.29;;;4.27;88.83
37904;BME280;23738;50.422;18.758;2024-03-17T06:54:20;99019.47;;;4.34;88.74
37904;BME280;23738;50.422;18.758;2024-03-17T06:56:50;99020.96;;;4.35;88.68
37904;BME280;23738;50.422;18.758;2024-03-17T06:59:19;99027.37;;;4.36;88.40
37904;BME280;23738;50.422;18.758;2024-03-17T07:01:50;99029.34;;;4.37;88.30
37904;BME280;23738;50.422;18.758;2024-03-17T07:04:19;99032.73;;;4.36;88.09
37904;BME280;23738;50.422;18.758;2024-03-17T07:06:49;99027.77;;;4.37;88.18
37904;BME280;23738;50.422;18.758;2024-03-17T07:09:18;99029.15;;;4.37;86.30
37904;BME280;23738;50.422;18.758;2024-03-17T07:11:47;99027.04;;;4.43;87.48
37904;BME280;23738;50.422;18.758;2024-03-17T07:14:18;99022.45;;;4.43;87.73
37904;BME280;23738;50.422;18.758;2024-03-17T07:16:47;99028.60;;;4.46;88.07
37904;BME280;23738;50.422;18.758;2024-03-17T07:19:16;99029.90;;;4.46;86.66
37904;BME280;23738;50.422;18.758;2024-03-17T07:21:45;99030.31;;;4.45;86.70
37904;BME280;23738;50.422;18.758;2024-03-17T07:24:14;99033.67;;;4.44;86.72
37904;BME280;23738;50.422;18.758;2024-03-17T07:26:44;99035.06;;;4.53;86.81
37904;BME280;23738;50.422;18.758;2024-03-17T07:29:13;99035.16;;;4.67;86.53
37904;BME280;23738;50.422;18.758;2024-03-17T07:31:42;99040.00;;;4.74;85.60
37904;BME280;23738;50.422;18.758;2024-03-17T07:34:12;99046.09;;;4.97;85.16
37904;BME280;23738;50.422;18.758;2024-03-17T07:36:41;99047.21;;;5.19;84.15
37904;BME280;23738;50.422;18.758;2024-03-17T07:39:11;99050.00;;;5.30;84.15
37904;BME280;23738;50.422;18.758;2024-03-17T07:41:41;99048.46;;;5.45;83.34
37904;BME280;23738;50.422;18.758;2024-03-17T07:44:10;99045.91;;;5.60;82.06
37904;BME280;23738;50.422;18.758;2024-03-17T07:46:40;99048.33;;;5.72;81.78
37904;BME280;23738;50.422;18.758;2024-03-17T07:49:09;99049.60;;;5.87;81.80
37904;BME280;23738;50.422;18.758;2024-03-17T07:51:40;99052.98;;;6.03;81.57
37904;BME280;23738;50.422;18.758;2024-03-17T07:54:12;99050.84;;;6.12;80.64
37904;BME280;23738;50.422;18.758;2024-03-17T07:56:41;99047.23;;;6.15;80.69
37904;BME280;23738;50.422;18.758;2024-03-17T07:59:10;99049.70;;;6.25;81.38
37904;BME280;23738;50.422;18.758;2024-03-17T08:01:41;99046.83;;;6.44;81.74
37904;BME280;23738;50.422;18.758;2024-03-17T08:04:10;99049.09;;;6.44;80.75
37904;BME280;23738;50.422;18.758;2024-03-17T08:06:40;99047.75;;;6.30;81.68
37904;BME280;23738;50.422;18.758;2024-03-17T08:09:10;99046.73;;;6.22;82.15
37904;BME280;23738;50.422;18.758;2024-03-17T08:11:40;99048.27;;;6.17;81.49
37904;BME280;23738;50.422;18.758;2024-03-17T08:14:14;99045.25;;;5.95;80.68
37904;BME280;23738;50.422;18.758;2024-03-17T08:16:43;99040.08;;;5.79;82.01
37904;BME280;23738;50.422;18.758;2024-03-17T08:19:12;99041.38;;;5.72;80.84
37904;BME280;23738;50.422;18.758;2024-03-17T08:21:42;99038.80;;;5.73;79.20
37904;BME280;23738;50.422;18.758;2024-03-17T08:24:11;99041.02;;;5.94;77.41
37904;BME280;23738;50.422;18.758;2024-03-17T08:26:41;99034.63;;;6.20;78.29
37904;BME280;23738;50.422;18.758;2024-03-17T08:29:13;99034.47;;;6.46;77.49
37904;BME280;23738;50.422;18.758;2024-03-17T08:31:42;99028.67;;;6.56;76.85
37904;BME280;23738;50.422;18.758;2024-03-17T08:34:13;99027.52;;;6.51;77.40
37904;BME280;23738;50.422;18.758;2024-03-17T08:36:42;99018.80;;;6.47;77.28
37904;BME280;23738;50.422;18.758;2024-03-17T08:39:12;99023.89;;;6.56;76.41
37904;BME280;23738;50.422;18.758;2024-03-17T08:41:41;99022.66;;;6.61;78.38
37904;BME280;23738;50.422;18.758;2024-03-17T08:44:39;99025.05;;;6.60;77.02
37904;BME280;23738;50.422;18.758;2024-03-17T08:47:09;99031.98;;;6.48;76.35
37904;BME280;23738;50.422;18.758;2024-03-17T08:49:38;99029.04;;;6.40;76.39
37904;BME280;23738;50.422;18.758;2024-03-17T08:52:07;99033.08;;;6.55;75.07
37904;BME280;23738;50.422;18.758;2024-03-17T08:54:37;99026.81;;;6.54;76.81
37904;BME280;23738;50.422;18.758;2024-03-17T08:57:06;99029.75;;;6.50;74.01
37904;BME280;23738;50.422;18.758;2024-03-17T08:59:35;99023.36;;;6.36;73.32
37904;BME280;23738;50.422;18.758;2024-03-17T09:02:13;99025.61;;;6.23;74.04
37904;BME280;23738;50.422;18.758;2024-03-17T09:04:45;99026.13;;;6.12;74.53
37904;BME280;23738;50.422;18.758;2024-03-17T09:07:14;99026.65;;;6.07;74.16
37904;BME280;23738;50.422;18.758;2024-03-17T09:09:44;99020.04;;;6.19;74.24
37904;BME280;23738;50.422;18.758;2024-03-17T09:12:15;99019.77;;;6.32;72.87
37904;BME280;23738;50.422;18.758;2024-03-17T09:14:48;99018.33;;;6.65;73.49
37904;BME280;23738;50.422;18.758;2024-03-17T09:17:17;99020.38;;;7.03;70.55
37904;BME280;23738;50.422;18.758;2024-03-17T09:19:49;99020.98;;;7.21;69.99
37904;BME280;23738;50.422;18.758;2024-03-17T09:22:21;99024.33;;;7.29;69.02
37904;BME280;23738;50.422;18.758;2024-03-17T09:24:53;99026.70;;;7.13;68.26
37904;BME280;23738;50.422;18.758;2024-03-17T09:27:23;99024.70;;;7.00;68.98
37904;BME280;23738;50.422;18.758;2024-03-17T09:29:54;99027.23;;;6.86;69.76
37904;BME280;23738;50.422;18.758;2024-03-17T09:32:23;99025.82;;;6.72;69.19
37904;BME280;23738;50.422;18.758;2024-03-17T09:34:54;99028.03;;;6.63;71.07
37904;BME280;23738;50.422;18.758;2024-03-17T09:37:23;99024.92;;;6.77;71.08
37904;BME280;23738;50.422;18.758;2024-03-17T09:39:53;99020.84;;;6.92;71.50
37904;BME280;23738;50.422;18.758;2024-03-17T09:42:25;99017.85;;;6.97;72.61
37904;BME280;23738;50.422;18.758;2024-03-17T09:44:55;99014.30;;;7.12;69.76
37904;BME280;23738;50.422;18.758;2024-03-17T09:47:26;99016.76;;;6.96;67.92
37904;BME280;23738;50.422;18.758;2024-03-17T09:49:56;99016.40;;;6.84;67.71
37904;BME280;23738;50.422;18.758;2024-03-17T09:52:26;99014.33;;;6.81;66.54
37904;BME280;23738;50.422;18.758;2024-03-17T09:55:00;99013.90;;;7.03;68.03
37904;BME280;23738;50.422;18.758;2024-03-17T09:57:30;99008.64;;;7.22;66.79
37904;BME280;23738;50.422;18.758;2024-03-17T10:00:06;99005.77;;;7.47;68.18
37904;BME280;23738;50.422;18.758;2024-03-17T10:02:45;99005.59;;;7.83;67.58
37904;BME280;23738;50.422;18.758;2024-03-17T10:05:22;99001.63;;;8.01;68.49
37904;BME280;23738;50.422;18.758;2024-03-17T10:07:52;99006.77;;;7.91;64.69
37904;BME280;23738;50.422;18.758;2024-03-17T10:10:22;99005.23;;;7.74;65.97
37904;BME280;23738;50.422;18.758;2024-03-17T10:12:52;99005.29;;;7.77;65.96
37904;BME280;23738;50.422;18.758;2024-03-17T10:15:24;99011.23;;;7.77;65.89
37904;BME280;23738;50.422;18.758;2024-03-17T10:17:53;99006.55;;;7.98;66.47
37904;BME280;23738;50.422;18.758;2024-03-17T10:20:43;99007.52;;;8.27;63.33
37904;BME280;23738;50.422;18.758;2024-03-17T10:23:13;99001.73;;;8.36;61.66
37904;BME280;23738;50.422;18.758;2024-03-17T10:25:47;99000.10;;;8.18;63.48
37904;BME280;23738;50.422;18.758;2024-03-17T10:28:18;99003.97;;;7.94;62.63
37904;BME280;23738;50.422;18.758;2024-03-17T10:30:59;99000.20;;;7.91;63.05
37904;BME280;23738;50.422;18.758;2024-03-17T10:33:29;99000.30;;;7.80;61.65
37904;BME280;23738;50.422;18.758;2024-03-17T10:36:02;98999.06;;;7.58;61.03
37904;BME280;23738;50.422;18.758;2024-03-17T10:38:36;98996.13;;;7.70;64.58
37904;BME280;23738;50.422;18.758;2024-03-17T10:41:06;98990.04;;;8.15;65.39
37904;BME280;23738;50.422;18.758;2024-03-17T10:43:35;98993.74;;;8.35;62.33
37904;BME280;23738;50.422;18.758;2024-03-17T10:46:06;98995.23;;;8.16;62.18
37904;BME280;23738;50.422;18.758;2024-03-17T10:48:36;98989.83;;;7.94;63.32
37904;BME280;23738;50.422;18.758;2024-03-17T10:51:06;98980.44;;;8.02;64.43
37904;BME280;23738;50.422;18.758;2024-03-17T10:53:38;98983.38;;;8.40;63.83
37904;BME280;23738;50.422;18.758;2024-03-17T10:56:17;98980.85;;;8.73;63.02
37904;BME280;23738;50.422;18.758;2024-03-17T10:58:49;98983.41;;;9.03;61.64
37904;BME280;23738;50.422;18.758;2024-03-17T11:01:25;98983.83;;;9.33;63.37
37904;BME280;23738;50.422;18.758;2024-03-17T11:03:54;98975.58;;;9.56;60.03
37904;BME280;23738;50.422;18.758;2024-03-17T11:06:24;98982.16;;;9.69;58.44
37904;BME280;23738;50.422;18.758;2024-03-17T11:08:55;98973.79;;;9.87;57.84
37904;BME280;23738;50.422;18.758;2024-03-17T11:11:37;98970.72;;;10.01;60.73
37904;BME280;23738;50.422;18.758;2024-03-17T11:14:20;98965.31;;;10.26;59.95
37904;BME280;23738;50.422;18.758;2024-03-17T11:16:50;98967.77;;;10.44;56.78
37904;BME280;23738;50.422;18.758;2024-03-17T11:19:19;98970.05;;;10.40;54.02
37904;BME280;23738;50.422;18.758;2024-03-17T11:21:48;98964.84;;;10.35;55.65
37904;BME280;23738;50.422;18.758;2024-03-17T11:24:22;98971.64;;;10.37;56.21
37904;BME280;23738;50.422;18.758;2024-03-17T11:26:53;98956.10;;;10.43;58.27
37904;BME280;23738;50.422;18.758;2024-03-17T11:29:30;98960.98;;;10.52;55.97
37904;BME280;23738;50.422;18.758;2024-03-17T11:32:01;98954.40;;;10.61;57.62
37904;BME280;23738;50.422;18.758;2024-03-17T11:34:50;98951.41;;;10.72;56.57
37904;BME280;23738;50.422;18.758;2024-03-17T11:37:45;98949.30;;;10.62;53.49
37904;BME280;23738;50.422;18.758;2024-03-17T11:40:27;98945.23;;;10.55;56.03
37904;BME280;23738;50.422;18.758;2024-03-17T11:43:05;98940.23;;;10.58;56.62
37904;BME280;23738;50.422;18.758;2024-03-17T11:45:36;98936.45;;;10.66;53.76
37904;BME280;23738;50.422;18.758;2024-03-17T11:48:08;98930.80;;;10.71;57.21
37904;BME280;23738;50.422;18.758;2024-03-17T11:50:41;98923.70;;;10.80;55.53
37904;BME280;23738;50.422;18.758;2024-03-17T11:53:12;98929.16;;;10.79;55.32
37904;BME280;23738;50.422;18.758;2024-03-17T11:55:49;98924.63;;;10.66;55.38
37904;BME280;23738;50.422;18.758;2024-03-17T11:58:18;98925.27;;;10.65;56.76
37904;BME280;23738;50.422;18.758;2024-03-17T12:00:53;98925.33;;;10.68;56.57
37904;BME280;23738;50.422;18.758;2024-03-17T12:03:23;98923.09;;;10.50;56.31
37904;BME280;23738;50.422;18.758;2024-03-17T12:05:52;98927.52;;;10.22;57.17
37904;BME280;23738;50.422;18.758;2024-03-17T12:08:22;98923.33;;;10.08;59.19
37904;BME280;23738;50.422;18.758;2024-03-17T12:10:52;98922.77;;;10.16;53.23
37904;BME280;23738;50.422;18.758;2024-03-17T12:13:21;98921.33;;;10.15;53.87
37904;BME280;23738;50.422;18.758;2024-03-17T12:15:50;98922.79;;;10.23;55.20
37904;BME280;23738;50.422;18.758;2024-03-17T12:18:22;98925.20;;;10.28;52.36
37904;BME280;23738;50.422;18.758;2024-03-17T12:20:51;98927.29;;;10.29;53.16
37904;BME280;23738;50.422;18.758;2024-03-17T12:23:21;98927.56;;;10.29;52.80
37904;BME280;23738;50.422;18.758;2024-03-17T12:25:51;98917.45;;;10.28;54.13
37904;BME280;23738;50.422;18.758;2024-03-17T12:28:22;98916.10;;;10.21;54.65
37904;BME280;23738;50.422;18.758;2024-03-17T12:30:52;98912.79;;;10.02;54.35
37904;BME280;23738;50.422;18.758;2024-03-17T12:33:27;98914.05;;;9.88;54.54
37904;BME280;23738;50.422;18.758;2024-03-17T12:35:56;98914.11;;;9.79;54.64
37904;BME280;23738;50.422;18.758;2024-03-17T12:38:29;98906.88;;;9.84;55.36
37904;BME280;23738;50.422;18.758;2024-03-17T12:40:58;98903.27;;;9.88;55.07
37904;BME280;23738;50.422;18.758;2024-03-17T12:43:28;98900.17;;;9.89;55.11
37904;BME280;23738;50.422;18.758;2024-03-17T12:45:58;98906.42;;;9.81;54.41
37904;BME280;23738;50.422;18.758;2024-03-17T12:48:27;98910.06;;;9.77;53.18
37904;BME280;23738;50.422;18.758;2024-03-17T12:50:57;98899.31;;;9.82;54.55
37904;BME280;23738;50.422;18.758;2024-03-17T12:53:26;98895.50;;;9.92;55.68
37904;BME280;23738;50.422;18.758;2024-03-17T12:55:55;98896.16;;;10.12;53.43
37904;BME280;23738;50.422;18.758;2024-03-17T12:58:42;98895.58;;;10.19;50.95
37904;BME280;23738;50.422;18.758;2024-03-17T13:01:29;98885.19;;;10.08;52.34
37904;BME280;23738;50.422;18.758;2024-03-17T13:04:06;98888.04;;;10.18;54.01
37904;BME280;23738;50.422;18.758;2024-03-17T13:06:36;98887.20;;;10.22;49.37
37904;BME280;23738;50.422;18.758;2024-03-17T13:09:05;98887.31;;;10.21;51.55
37904;BME280;23738;50.422;18.758;2024-03-17T13:11:38;98881.54;;;10.22;50.77
37904;BME280;23738;50.422;18.758;2024-03-17T13:14:08;98883.16;;;10.25;49.27
37904;BME280;23738;50.422;18.758;2024-03-17T13:16:41;98882.02;;;10.22;50.12
37904;BME280;23738;50.422;18.758;2024-03-17T13:19:11;98877.72;;;10.22;50.53